EXS3651 EGHH-LEPA
Flight info
| Callsign | EXS3651 |
|---|---|
| Flight time | N/A |
| Altitude | 39000 |
| Route | THRED Z171 LELNA DCT DOMOK DCT UPALO UY110 REN UP87 TERPO UM616 TUPAR DCT CNA DCT SECHE DCT AGN DCT TOU DCT LOMRA DCT ROCAN DCT IBRAP DCT LUKEV DCT LORES |
| Aircraft | B738/M-SDE2E3FGHIRWXY/LB1 |
Departure
| Time | N/A |
|---|---|
| Airport | Bournemouth Airport (EGHH) |
Arrival
| Time | 2026-05-04 16:22 |
|---|---|
| Airport | Palma de Mallorca Airport (LEPA) |
| Time | Latitude | Longitude | Altitude | Speed | Heading |
|---|---|---|---|---|---|
| 2026-05-04 14:33 | 49.91859 | -2.10758 | 28066 ft | 397 kts | 180° |
| 2026-05-04 14:33 | 49.89126 | -2.10697 | 28506 ft | 398 kts | 179° |
| 2026-05-04 14:33 | 49.86333 | -2.10635 | 28858 ft | 401 kts | 179° |
| 2026-05-04 14:34 | 49.83530 | -2.10590 | 29216 ft | 404 kts | 179° |
| 2026-05-04 14:34 | 49.80716 | -2.10560 | 29623 ft | 405 kts | 180° |
| 2026-05-04 14:34 | 49.77887 | -2.10538 | 30026 ft | 406 kts | 180° |
| 2026-05-04 14:34 | 49.75050 | -2.10518 | 30317 ft | 408 kts | 179° |
| 2026-05-04 14:35 | 49.72237 | -2.10247 | 30486 ft | 412 kts | 172° |
| 2026-05-04 14:35 | 49.69424 | -2.09312 | 30752 ft | 415 kts | 165° |
| 2026-05-04 14:35 | 49.66648 | -2.08045 | 31191 ft | 413 kts | 165° |
| 2026-05-04 14:35 | 49.63885 | -2.06795 | 31495 ft | 414 kts | 165° |
| 2026-05-04 14:36 | 49.61101 | -2.05550 | 31684 ft | 418 kts | 165° |
| 2026-05-04 14:36 | 49.58329 | -2.04321 | 31960 ft | 419 kts | 165° |
| 2026-05-04 14:36 | 49.55528 | -2.03087 | 32340 ft | 418 kts | 165° |
| 2026-05-04 14:36 | 49.52725 | -2.01858 | 32667 ft | 419 kts | 165° |
| 2026-05-04 14:37 | 49.49909 | -2.00627 | 32876 ft | 422 kts | 165° |
| 2026-05-04 14:37 | 49.47080 | -1.99392 | 33164 ft | 422 kts | 165° |
| 2026-05-04 14:37 | 49.44252 | -1.98159 | 33554 ft | 421 kts | 165° |
| 2026-05-04 14:37 | 49.41461 | -1.96943 | 33852 ft | 422 kts | 165° |
| 2026-05-04 14:38 | 49.38618 | -1.95707 | 34030 ft | 425 kts | 165° |
| 2026-05-04 14:38 | 49.35764 | -1.94467 | 34222 ft | 426 kts | 165° |
| 2026-05-04 14:38 | 49.32942 | -1.93242 | 34520 ft | 425 kts | 165° |
| 2026-05-04 14:38 | 49.30097 | -1.92008 | 34832 ft | 424 kts | 165° |
| 2026-05-04 14:39 | 49.27248 | -1.90774 | 35034 ft | 426 kts | 165° |
| 2026-05-04 14:39 | 49.24389 | -1.89537 | 35184 ft | 428 kts | 165° |
| 2026-05-04 14:39 | 49.21514 | -1.88295 | 35424 ft | 429 kts | 165° |
| 2026-05-04 14:40 | 49.15778 | -1.85821 | 35956 ft | 427 kts | 165° |
| 2026-05-04 14:40 | 49.12898 | -1.84582 | 36105 ft | 430 kts | 165° |
| 2026-05-04 14:40 | 49.10053 | -1.83358 | 36267 ft | 431 kts | 165° |
| 2026-05-04 14:40 | 49.07160 | -1.82116 | 36533 ft | 430 kts | 165° |
| 2026-05-04 14:41 | 49.04279 | -1.80879 | 36812 ft | 429 kts | 165° |
| 2026-05-04 14:41 | 49.01395 | -1.79643 | 36968 ft | 431 kts | 165° |
| 2026-05-04 14:41 | 48.95586 | -1.77158 | 37301 ft | 434 kts | 165° |
| 2026-05-04 14:42 | 48.89729 | -1.75116 | 37679 ft | 433 kts | 177° |
| 2026-05-04 14:42 | 48.86717 | -1.75003 | 37930 ft | 431 kts | 181° |
| 2026-05-04 14:42 | 48.83725 | -1.75015 | 38199 ft | 430 kts | 180° |
| 2026-05-04 14:43 | 48.80764 | -1.75022 | 38304 ft | 432 kts | 180° |
| 2026-05-04 14:43 | 48.77746 | -1.75017 | 38406 ft | 434 kts | 180° |
| 2026-05-04 14:43 | 48.74720 | -1.74998 | 38568 ft | 435 kts | 180° |
| 2026-05-04 14:43 | 48.71691 | -1.74970 | 38763 ft | 434 kts | 180° |
| 2026-05-04 14:44 | 48.68664 | -1.74936 | 38918 ft | 434 kts | 180° |
| 2026-05-04 14:44 | 48.65641 | -1.74900 | 38959 ft | 436 kts | 180° |
| 2026-05-04 14:44 | 48.59549 | -1.74825 | 38974 ft | 438 kts | 180° |
| 2026-05-04 14:45 | 48.53478 | -1.74751 | 38975 ft | 438 kts | 180° |
| 2026-05-04 14:45 | 48.47381 | -1.74678 | 38974 ft | 438 kts | 180° |
| 2026-05-04 14:46 | 48.41306 | -1.74606 | 38950 ft | 438 kts | 180° |
| 2026-05-04 14:46 | 48.35203 | -1.74533 | 38964 ft | 438 kts | 180° |
| 2026-05-04 14:47 | 48.29102 | -1.74461 | 38959 ft | 439 kts | 180° |
| 2026-05-04 14:47 | 48.23026 | -1.74390 | 38974 ft | 438 kts | 180° |
| 2026-05-04 14:48 | 48.16934 | -1.74318 | 38965 ft | 437 kts | 180° |
| 2026-05-04 14:48 | 48.10838 | -1.74246 | 38963 ft | 436 kts | 180° |
| 2026-05-04 14:49 | 48.04867 | -1.75171 | 38995 ft | 433 kts | 196° |
| 2026-05-04 14:49 | 47.99142 | -1.78067 | 38986 ft | 434 kts | 200° |
| 2026-05-04 14:50 | 47.93426 | -1.81088 | 38966 ft | 435 kts | 199° |
| 2026-05-04 14:50 | 47.87708 | -1.84044 | 38952 ft | 433 kts | 199° |
| 2026-05-04 14:51 | 47.82041 | -1.86937 | 38939 ft | 432 kts | 199° |
| 2026-05-04 14:51 | 47.76351 | -1.89833 | 38947 ft | 430 kts | 199° |
| 2026-05-04 14:52 | 47.70686 | -1.92712 | 38930 ft | 429 kts | 199° |
| 2026-05-04 14:52 | 47.65008 | -1.95267 | 38899 ft | 429 kts | 190° |
| 2026-05-04 14:53 | 47.59069 | -1.95606 | 38915 ft | 429 kts | 176° |
| 2026-05-04 14:53 | 47.53175 | -1.94286 | 38901 ft | 432 kts | 161° |
| 2026-05-04 14:54 | 47.47981 | -1.89948 | 38947 ft | 436 kts | 142° |
| 2026-05-04 14:54 | 47.43306 | -1.84210 | 38947 ft | 438 kts | 143° |
| 2026-05-04 14:55 | 47.38578 | -1.78458 | 38955 ft | 440 kts | 143° |
| 2026-05-04 14:55 | 47.33848 | -1.72766 | 38962 ft | 441 kts | 143° |
| 2026-05-04 14:56 | 47.29068 | -1.67050 | 38958 ft | 443 kts | 143° |
| 2026-05-04 14:56 | 47.24269 | -1.61328 | 38959 ft | 444 kts | 143° |
| 2026-05-04 14:57 | 47.19445 | -1.55589 | 38962 ft | 446 kts | 143° |
| 2026-05-04 14:57 | 47.14617 | -1.49858 | 38970 ft | 445 kts | 144° |
| 2026-05-04 14:58 | 47.09806 | -1.44160 | 38924 ft | 446 kts | 144° |
| 2026-05-04 14:58 | 47.04973 | -1.38450 | 38924 ft | 445 kts | 144° |
| 2026-05-04 14:59 | 47.00152 | -1.32767 | 38934 ft | 443 kts | 144° |
| 2026-05-04 15:00 | 46.93008 | -1.24372 | 38951 ft | 439 kts | 144° |
| 2026-05-04 15:00 | 46.88248 | -1.18795 | 38939 ft | 437 kts | 144° |
| 2026-05-04 15:01 | 46.81185 | -1.10544 | 38957 ft | 434 kts | 144° |
| 2026-05-04 15:01 | 46.76456 | -1.05035 | 38963 ft | 433 kts | 144° |
| 2026-05-04 15:02 | 46.71817 | -0.99645 | 38948 ft | 433 kts | 144° |
| 2026-05-04 15:02 | 46.67094 | -0.94167 | 38944 ft | 434 kts | 144° |
| 2026-05-04 15:03 | 46.62381 | -0.88715 | 38956 ft | 435 kts | 144° |
| 2026-05-04 15:03 | 46.57631 | -0.83232 | 38936 ft | 437 kts | 144° |
| 2026-05-04 15:04 | 46.52852 | -0.77726 | 38932 ft | 437 kts | 145° |
| 2026-05-04 15:04 | 46.48061 | -0.72219 | 38922 ft | 439 kts | 145° |
| 2026-05-04 15:05 | 46.43186 | -0.66985 | 38895 ft | 437 kts | 154° |
| 2026-05-04 15:05 | 46.37844 | -0.62854 | 38900 ft | 438 kts | 152° |
| 2026-05-04 15:06 | 46.32666 | -0.58205 | 38906 ft | 439 kts | 151° |
| 2026-05-04 15:07 | 46.24897 | -0.51192 | 38942 ft | 438 kts | 152° |
| 2026-05-04 15:07 | 46.19717 | -0.46630 | 38936 ft | 438 kts | 152° |
| 2026-05-04 15:08 | 46.14503 | -0.42080 | 38929 ft | 436 kts | 152° |
| 2026-05-04 15:08 | 46.09333 | -0.37584 | 38935 ft | 434 kts | 152° |
| 2026-05-04 15:09 | 46.04165 | -0.33100 | 38927 ft | 432 kts | 152° |
| 2026-05-04 15:09 | 45.99033 | -0.28655 | 38916 ft | 430 kts | 152° |
| 2026-05-04 15:10 | 45.91372 | -0.22038 | 38915 ft | 428 kts | 152° |
| 2026-05-04 15:11 | 45.84561 | -0.16173 | 38921 ft | 427 kts | 152° |
| 2026-05-04 15:11 | 45.79451 | -0.11784 | 38924 ft | 428 kts | 152° |
| 2026-05-04 15:12 | 45.74333 | -0.07397 | 38920 ft | 429 kts | 152° |
| 2026-05-04 15:12 | 45.69233 | -0.03036 | 38935 ft | 430 kts | 152° |
| 2026-05-04 15:13 | 45.64181 | 0.01276 | 38917 ft | 432 kts | 153° |
| 2026-05-04 15:13 | 45.59007 | 0.05682 | 38927 ft | 433 kts | 153° |
| 2026-05-04 15:14 | 45.53835 | 0.10076 | 38904 ft | 436 kts | 153° |
| 2026-05-04 15:14 | 45.48609 | 0.14508 | 38917 ft | 437 kts | 153° |
| 2026-05-04 15:15 | 45.43369 | 0.18941 | 38909 ft | 438 kts | 153° |
| 2026-05-04 15:15 | 45.38121 | 0.23373 | 38913 ft | 438 kts | 153° |
| 2026-05-04 15:16 | 45.30274 | 0.29980 | 38922 ft | 438 kts | 153° |
| 2026-05-04 15:17 | 45.22390 | 0.36596 | 38922 ft | 438 kts | 153° |
| 2026-05-04 15:17 | 45.14573 | 0.43138 | 38908 ft | 435 kts | 154° |
| 2026-05-04 15:18 | 45.09375 | 0.47475 | 38916 ft | 432 kts | 154° |
| 2026-05-04 15:19 | 45.01599 | 0.53944 | 38908 ft | 430 kts | 154° |
| 2026-05-04 15:19 | 44.93896 | 0.60333 | 38908 ft | 429 kts | 154° |
| 2026-05-04 15:20 | 44.88745 | 0.64593 | 38939 ft | 430 kts | 154° |
| 2026-05-04 15:20 | 44.83542 | 0.68878 | 38928 ft | 435 kts | 154° |
| 2026-05-04 15:21 | 44.78265 | 0.73228 | 38893 ft | 441 kts | 154° |
| 2026-05-04 15:22 | 44.70373 | 0.79721 | 38919 ft | 437 kts | 154° |
| 2026-05-04 15:22 | 44.62516 | 0.86156 | 38905 ft | 433 kts | 154° |
| 2026-05-04 15:23 | 44.57325 | 0.90395 | 38913 ft | 430 kts | 155° |
| 2026-05-04 15:23 | 44.52157 | 0.94607 | 38908 ft | 428 kts | 155° |
| 2026-05-04 15:24 | 44.41981 | 1.02874 | 38918 ft | 426 kts | 155° |
| 2026-05-04 15:25 | 44.36844 | 1.07035 | 38912 ft | 427 kts | 155° |
| 2026-05-04 15:26 | 44.29104 | 1.13287 | 38931 ft | 429 kts | 155° |
| 2026-05-04 15:26 | 44.21335 | 1.19544 | 38914 ft | 433 kts | 156° |
| 2026-05-04 15:27 | 44.13464 | 1.25865 | 38921 ft | 436 kts | 156° |
| 2026-05-04 15:28 | 44.05553 | 1.32198 | 38910 ft | 440 kts | 156° |
| 2026-05-04 15:29 | 43.97576 | 1.38566 | 38910 ft | 440 kts | 156° |
| 2026-05-04 15:30 | 43.79070 | 1.53263 | 38913 ft | 434 kts | 156° |
| 2026-05-04 15:31 | 43.71222 | 1.59462 | 38925 ft | 430 kts | 156° |
| 2026-05-04 15:32 | 43.58312 | 1.69617 | 38904 ft | 425 kts | 157° |
| 2026-05-04 15:34 | 43.45490 | 1.79655 | 38905 ft | 423 kts | 157° |
| 2026-05-04 15:34 | 43.37828 | 1.85629 | 38898 ft | 423 kts | 158° |
| 2026-05-04 15:35 | 43.32415 | 1.88376 | 38950 ft | 408 kts | 174° |
| 2026-05-04 15:35 | 43.29608 | 1.88881 | 38869 ft | 405 kts | 181° |
| 2026-05-04 15:36 | 43.21174 | 1.89605 | 38931 ft | 408 kts | 182° |
| 2026-05-04 15:36 | 43.15479 | 1.90118 | 38926 ft | 411 kts | 181° |
| 2026-05-04 15:37 | 43.09751 | 1.90660 | 38920 ft | 413 kts | 181° |
| 2026-05-04 15:37 | 43.03999 | 1.91210 | 38902 ft | 414 kts | 182° |
| 2026-05-04 15:38 | 42.98257 | 1.91759 | 38871 ft | 415 kts | 182° |
| 2026-05-04 15:38 | 42.92486 | 1.92311 | 38883 ft | 416 kts | 182° |
| 2026-05-04 15:39 | 42.86697 | 1.92862 | 38893 ft | 417 kts | 182° |
| 2026-05-04 15:40 | 42.78050 | 1.93683 | 38892 ft | 417 kts | 182° |
| 2026-05-04 15:40 | 42.72245 | 1.94233 | 38907 ft | 416 kts | 182° |
| 2026-05-04 15:41 | 42.66472 | 1.94948 | 38914 ft | 423 kts | 174° |
| 2026-05-04 15:41 | 42.60716 | 1.96987 | 38877 ft | 426 kts | 171° |
| 2026-05-04 15:42 | 42.55050 | 1.99108 | 38895 ft | 419 kts | 171° |
| 2026-05-04 15:42 | 42.49504 | 2.01123 | 38909 ft | 422 kts | 172° |
| 2026-05-04 15:43 | 42.43807 | 2.03169 | 38915 ft | 424 kts | 172° |
| 2026-05-04 15:43 | 42.38052 | 2.05233 | 38897 ft | 428 kts | 172° |
| 2026-05-04 15:44 | 42.32321 | 2.07280 | 38898 ft | 429 kts | 172° |
| 2026-05-04 15:44 | 42.26556 | 2.09326 | 38922 ft | 426 kts | 172° |
| 2026-05-04 15:45 | 42.20799 | 2.11361 | 38915 ft | 425 kts | 172° |
| 2026-05-04 15:45 | 42.15108 | 2.13375 | 38917 ft | 424 kts | 172° |
| 2026-05-04 15:46 | 42.09400 | 2.15393 | 38917 ft | 423 kts | 172° |
| 2026-05-04 15:46 | 42.03700 | 2.17399 | 38904 ft | 424 kts | 172° |
| 2026-05-04 15:47 | 41.98045 | 2.19388 | 38905 ft | 423 kts | 172° |
| 2026-05-04 15:47 | 41.95199 | 2.20387 | 38799 ft | 424 kts | 173° |
| 2026-05-04 15:47 | 41.92321 | 2.21394 | 38192 ft | 428 kts | 173° |
| 2026-05-04 15:47 | 41.89458 | 2.22401 | 37769 ft | 422 kts | 173° |
| 2026-05-04 15:48 | 41.86634 | 2.23394 | 37447 ft | 415 kts | 173° |
| 2026-05-04 15:48 | 41.83862 | 2.24367 | 36984 ft | 412 kts | 173° |
| 2026-05-04 15:48 | 41.78393 | 2.26278 | 36248 ft | 402 kts | 173° |
| 2026-05-04 15:49 | 41.75702 | 2.27217 | 35952 ft | 396 kts | 173° |
| 2026-05-04 15:49 | 41.73057 | 2.28143 | 35682 ft | 390 kts | 173° |
| 2026-05-04 15:49 | 41.70451 | 2.29056 | 35402 ft | 384 kts | 173° |
| 2026-05-04 15:49 | 41.67881 | 2.29955 | 35086 ft | 379 kts | 173° |
| 2026-05-04 15:50 | 41.65365 | 2.30831 | 34705 ft | 377 kts | 173° |
| 2026-05-04 15:50 | 41.62834 | 2.31711 | 34383 ft | 373 kts | 173° |
| 2026-05-04 15:50 | 41.60324 | 2.32584 | 34024 ft | 371 kts | 173° |
| 2026-05-04 15:50 | 41.57832 | 2.33450 | 33632 ft | 369 kts | 173° |
| 2026-05-04 15:51 | 41.55345 | 2.34313 | 33223 ft | 366 kts | 173° |
| 2026-05-04 15:51 | 41.52898 | 2.35163 | 32902 ft | 361 kts | 173° |
| 2026-05-04 15:51 | 41.50482 | 2.36002 | 32529 ft | 358 kts | 173° |
| 2026-05-04 15:51 | 41.48110 | 2.36824 | 32221 ft | 354 kts | 173° |
| 2026-05-04 15:52 | 41.45732 | 2.37648 | 31862 ft | 352 kts | 173° |
| 2026-05-04 15:52 | 41.43364 | 2.38467 | 31528 ft | 349 kts | 173° |
| 2026-05-04 15:52 | 41.41021 | 2.39277 | 31186 ft | 347 kts | 173° |
| 2026-05-04 15:52 | 41.38690 | 2.40082 | 30845 ft | 345 kts | 173° |
| 2026-05-04 15:53 | 41.36375 | 2.40881 | 30525 ft | 342 kts | 173° |
| 2026-05-04 15:53 | 41.34076 | 2.41674 | 30200 ft | 340 kts | 173° |
| 2026-05-04 15:53 | 41.31804 | 2.42458 | 29825 ft | 338 kts | 173° |
| 2026-05-04 15:53 | 41.29526 | 2.43244 | 29470 ft | 335 kts | 174° |
| 2026-05-04 15:54 | 41.27288 | 2.44016 | 29162 ft | 330 kts | 174° |
| 2026-05-04 15:54 | 41.25062 | 2.44782 | 28771 ft | 329 kts | 174° |
| 2026-05-04 15:54 | 41.22892 | 2.45529 | 28503 ft | 324 kts | 174° |
| 2026-05-04 15:54 | 41.20703 | 2.46280 | 28103 ft | 324 kts | 174° |
| 2026-05-04 15:55 | 41.18525 | 2.47027 | 27836 ft | 322 kts | 174° |
| 2026-05-04 15:55 | 41.16337 | 2.47773 | 27457 ft | 331 kts | 173° |
| 2026-05-04 15:55 | 41.14836 | 2.48281 | 27235 ft | 339 kts | 173° |
| 2026-05-04 15:55 | 41.12527 | 2.49066 | 26884 ft | 343 kts | 173° |
| 2026-05-04 15:56 | 41.10221 | 2.49857 | 26502 ft | 341 kts | 173° |
| 2026-05-04 15:56 | 41.07930 | 2.50646 | 26158 ft | 338 kts | 173° |
| 2026-05-04 15:56 | 41.05661 | 2.51427 | 25817 ft | 336 kts | 173° |
| 2026-05-04 15:56 | 41.03402 | 2.52202 | 25470 ft | 333 kts | 173° |
| 2026-05-04 15:57 | 41.01186 | 2.52961 | 25139 ft | 331 kts | 173° |
| 2026-05-04 15:57 | 40.98960 | 2.53721 | 24807 ft | 330 kts | 173° |
| 2026-05-04 15:57 | 40.96743 | 2.54478 | 24473 ft | 328 kts | 173° |
| 2026-05-04 15:57 | 40.94535 | 2.55230 | 24132 ft | 327 kts | 173° |
| 2026-05-04 15:58 | 40.92331 | 2.55980 | 23793 ft | 326 kts | 173° |
| 2026-05-04 15:58 | 40.90138 | 2.56726 | 23425 ft | 326 kts | 173° |
| 2026-05-04 15:58 | 40.87937 | 2.57474 | 23025 ft | 325 kts | 173° |
| 2026-05-04 15:58 | 40.85757 | 2.58216 | 22681 ft | 322 kts | 174° |
| 2026-05-04 15:59 | 40.83592 | 2.58952 | 22346 ft | 320 kts | 173° |
| 2026-05-04 15:59 | 40.81464 | 2.59675 | 22019 ft | 318 kts | 173° |
| 2026-05-04 15:59 | 40.79329 | 2.60400 | 21693 ft | 316 kts | 173° |
| 2026-05-04 15:59 | 40.77196 | 2.61123 | 21366 ft | 314 kts | 173° |
| 2026-05-04 16:00 | 40.75082 | 2.61839 | 21032 ft | 313 kts | 173° |
| 2026-05-04 16:00 | 40.72977 | 2.62551 | 20739 ft | 311 kts | 173° |
| 2026-05-04 16:00 | 40.70903 | 2.63251 | 20428 ft | 312 kts | 173° |
| 2026-05-04 16:00 | 40.68794 | 2.63963 | 20078 ft | 313 kts | 172° |
| 2026-05-04 16:01 | 40.66680 | 2.64677 | 19755 ft | 312 kts | 172° |
| 2026-05-04 16:01 | 40.64586 | 2.65385 | 19453 ft | 310 kts | 172° |
| 2026-05-04 16:01 | 40.62488 | 2.66094 | 19126 ft | 309 kts | 172° |
| 2026-05-04 16:01 | 40.60426 | 2.66789 | 18804 ft | 309 kts | 172° |
| 2026-05-04 16:02 | 40.58343 | 2.67491 | 18472 ft | 308 kts | 171° |
| 2026-05-04 16:02 | 40.56266 | 2.68191 | 18149 ft | 307 kts | 171° |
| 2026-05-04 16:02 | 40.52288 | 2.70505 | 17371 ft | 315 kts | 157° |
| 2026-05-04 16:03 | 40.50356 | 2.71893 | 16911 ft | 317 kts | 156° |
| 2026-05-04 16:03 | 40.48433 | 2.73274 | 16710 ft | 311 kts | 157° |
| 2026-05-04 16:03 | 40.46527 | 2.74629 | 16311 ft | 312 kts | 157° |
| 2026-05-04 16:03 | 40.44620 | 2.75971 | 16030 ft | 309 kts | 157° |
| 2026-05-04 16:04 | 40.42726 | 2.77293 | 15691 ft | 308 kts | 157° |
| 2026-05-04 16:04 | 40.38971 | 2.79895 | 15078 ft | 305 kts | 158° |
| 2026-05-04 16:04 | 40.37092 | 2.81191 | 14770 ft | 304 kts | 158° |
| 2026-05-04 16:05 | 40.35225 | 2.82476 | 14464 ft | 302 kts | 158° |
| 2026-05-04 16:05 | 40.33359 | 2.83758 | 14176 ft | 301 kts | 158° |
| 2026-05-04 16:05 | 40.29708 | 2.86266 | 13652 ft | 296 kts | 157° |
| 2026-05-04 16:06 | 40.27881 | 2.87518 | 13295 ft | 295 kts | 157° |
| 2026-05-04 16:06 | 40.23068 | 2.90815 | 12472 ft | 287 kts | 157° |
| 2026-05-04 16:07 | 40.20709 | 2.92428 | 11731 ft | 287 kts | 158° |
| 2026-05-04 16:07 | 40.15480 | 2.96002 | 10512 ft | 275 kts | 158° |
| 2026-05-04 16:08 | 40.13809 | 2.97144 | 10271 ft | 266 kts | 158° |
| 2026-05-04 16:08 | 40.09011 | 3.00411 | 9619 ft | 265 kts | 158° |
| 2026-05-04 16:09 | 40.05739 | 3.02634 | 9170 ft | 261 kts | 158° |
| 2026-05-04 16:09 | 40.02530 | 3.04818 | 8656 ft | 258 kts | 158° |
| 2026-05-04 16:10 | 39.99444 | 3.07168 | 8122 ft | 261 kts | 143° |
| 2026-05-04 16:11 | 39.95561 | 3.11934 | 7534 ft | 252 kts | 142° |
| 2026-05-04 16:11 | 39.94285 | 3.13495 | 7341 ft | 249 kts | 142° |
| 2026-05-04 16:12 | 39.90549 | 3.18055 | 6820 ft | 257 kts | 142° |
| 2026-05-04 16:12 | 39.86235 | 3.22188 | 5648 ft | 258 kts | 172° |
| 2026-05-04 16:13 | 39.82839 | 3.21461 | 4958 ft | 250 kts | 210° |
| 2026-05-04 16:13 | 39.79874 | 3.19254 | 4719 ft | 234 kts | 212° |
| 2026-05-04 16:14 | 39.77157 | 3.17186 | 4670 ft | 219 kts | 212° |
| 2026-05-04 16:14 | 39.74662 | 3.15306 | 4675 ft | 199 kts | 212° |
| 2026-05-04 16:15 | 39.70982 | 3.12558 | 4685 ft | 207 kts | 212° |
| 2026-05-04 16:16 | 39.68484 | 3.10696 | 4700 ft | 207 kts | 212° |
| 2026-05-04 16:16 | 39.66810 | 3.06196 | 4728 ft | 212 kts | 280° |
| 2026-05-04 16:17 | 39.67024 | 3.02426 | 4703 ft | 210 kts | 247° |
| 2026-05-04 16:18 | 39.64686 | 2.97695 | 4685 ft | 208 kts | 240° |
| 2026-05-04 16:18 | 39.63989 | 2.96057 | 4654 ft | 207 kts | 240° |
| 2026-05-04 16:19 | 39.61848 | 2.91097 | 3429 ft | 211 kts | 240° |
| 2026-05-04 16:19 | 39.60428 | 2.87769 | 2371 ft | 208 kts | 240° |
| 2026-05-04 16:20 | 39.58413 | 2.83088 | 1560 ft | 183 kts | 240° |
| 2026-05-04 16:20 | 39.57336 | 2.80216 | 759 ft | 161 kts | 240° |
| 2026-05-04 16:21 | 39.55965 | 2.77019 | 235 ft | 131 kts | 240° |
| 2026-05-04 16:22 | 39.55045 | 2.75114 | 38 ft | 109 kts | 236° |
| 2026-05-04 16:22 | 39.54549 | 2.73907 | 37 ft | 18 kts | 270° |
| 2026-05-04 16:23 | 39.54549 | 2.73782 | 37 ft | 3 kts | 270° |
| 2026-05-04 16:24 | 39.54676 | 2.73891 | 36 ft | 18 kts | 59° |
| 2026-05-04 16:25 | 39.54776 | 2.74094 | 36 ft | 13 kts | 58° |
| 2026-05-04 16:26 | 39.55045 | 2.73954 | 36 ft | 19 kts | 328° |
| 2026-05-04 16:26 | 39.55304 | 2.73748 | 37 ft | 15 kts | 329° |
| 2026-05-04 16:27 | 39.55490 | 2.73551 | 37 ft | 18 kts | 257° |
| 2026-05-04 16:28 | 39.55290 | 2.73118 | 36 ft | 19 kts | 237° |
| 2026-05-04 16:28 | 39.55159 | 2.73011 | 37 ft | 0 kts | 194° |